sensor_id;sensor_type;location;lat;lon;timestamp;P1;durP1;ratioP1;P2;durP2;ratioP2
13693;SDS011;6919;52.344;14.518;2023-05-20T00:01:26;0.43;;;0.40;;
13693;SDS011;6919;52.344;14.518;2023-05-20T00:03:54;0.50;;;0.50;;
13693;SDS011;6919;52.344;14.518;2023-05-20T00:06:23;0.90;;;0.90;;
13693;SDS011;6919;52.344;14.518;2023-05-20T00:08:51;1.20;;;1.10;;
13693;SDS011;6919;52.344;14.518;2023-05-20T00:11:22;0.50;;;0.50;;
13693;SDS011;6919;52.344;14.518;2023-05-20T00:13:51;0.87;;;0.83;;
13693;SDS011;6919;52.344;14.518;2023-05-20T00:16:19;0.40;;;0.40;;
13693;SDS011;6919;52.344;14.518;2023-05-20T00:18:48;0.80;;;0.80;;
13693;SDS011;6919;52.344;14.518;2023-05-20T00:21:16;0.67;;;0.67;;
13693;SDS011;6919;52.344;14.518;2023-05-20T00:23:45;1.33;;;1.07;;
13693;SDS011;6919;52.344;14.518;2023-05-20T00:26:13;0.83;;;0.83;;
13693;SDS011;6919;52.344;14.518;2023-05-20T00:28:42;0.60;;;0.53;;
13693;SDS011;6919;52.344;14.518;2023-05-20T00:31:11;0.80;;;0.80;;
13693;SDS011;6919;52.344;14.518;2023-05-20T00:33:39;0.40;;;0.40;;
13693;SDS011;6919;52.344;14.518;2023-05-20T00:36:08;1.20;;;0.80;;
13693;SDS011;6919;52.344;14.518;2023-05-20T00:38:36;1.40;;;1.03;;
13693;SDS011;6919;52.344;14.518;2023-05-20T00:41:05;1.57;;;0.83;;
13693;SDS011;6919;52.344;14.518;2023-05-20T00:43:33;0.53;;;0.50;;
13693;SDS011;6919;52.344;14.518;2023-05-20T00:46:03;1.07;;;0.97;;
13693;SDS011;6919;52.344;14.518;2023-05-20T00:48:35;0.83;;;0.83;;
13693;SDS011;6919;52.344;14.518;2023-05-20T00:51:09;1.57;;;0.83;;
13693;SDS011;6919;52.344;14.518;2023-05-20T00:53:38;0.90;;;0.90;;
13693;SDS011;6919;52.344;14.518;2023-05-20T00:56:08;0.57;;;0.57;;
13693;SDS011;6919;52.344;14.518;2023-05-20T00:58:38;0.70;;;0.70;;
13693;SDS011;6919;52.344;14.518;2023-05-20T01:01:08;0.53;;;0.53;;
13693;SDS011;6919;52.344;14.518;2023-05-20T01:03:36;1.23;;;0.80;;
13693;SDS011;6919;52.344;14.518;2023-05-20T01:06:07;1.70;;;0.80;;
13693;SDS011;6919;52.344;14.518;2023-05-20T01:08:36;0.87;;;0.87;;
13693;SDS011;6919;52.344;14.518;2023-05-20T01:11:05;0.60;;;0.60;;
13693;SDS011;6919;52.344;14.518;2023-05-20T01:13:39;0.70;;;0.70;;
13693;SDS011;6919;52.344;14.518;2023-05-20T01:16:16;1.93;;;1.30;;
13693;SDS011;6919;52.344;14.518;2023-05-20T01:18:46;0.53;;;0.53;;
13693;SDS011;6919;52.344;14.518;2023-05-20T01:21:17;0.50;;;0.50;;
13693;SDS011;6919;52.344;14.518;2023-05-20T01:23:48;0.60;;;0.60;;
13693;SDS011;6919;52.344;14.518;2023-05-20T01:26:16;0.80;;;0.80;;
13693;SDS011;6919;52.344;14.518;2023-05-20T01:28:46;1.27;;;1.00;;
13693;SDS011;6919;52.344;14.518;2023-05-20T01:31:17;0.87;;;0.80;;
13693;SDS011;6919;52.344;14.518;2023-05-20T01:33:54;1.53;;;0.93;;
13693;SDS011;6919;52.344;14.518;2023-05-20T01:36:29;0.80;;;0.80;;
13693;SDS011;6919;52.344;14.518;2023-05-20T01:39:03;1.50;;;0.97;;
13693;SDS011;6919;52.344;14.518;2023-05-20T01:41:34;0.97;;;0.97;;
13693;SDS011;6919;52.344;14.518;2023-05-20T01:44:04;0.50;;;0.50;;
13693;SDS011;6919;52.344;14.518;2023-05-20T01:46:33;0.63;;;0.50;;
13693;SDS011;6919;52.344;14.518;2023-05-20T01:49:01;0.83;;;0.77;;
13693;SDS011;6919;52.344;14.518;2023-05-20T01:51:30;2.53;;;0.90;;
13693;SDS011;6919;52.344;14.518;2023-05-20T01:54:01;1.13;;;1.03;;
13693;SDS011;6919;52.344;14.518;2023-05-20T01:56:30;0.63;;;0.63;;
13693;SDS011;6919;52.344;14.518;2023-05-20T01:59:01;1.83;;;1.07;;
13693;SDS011;6919;52.344;14.518;2023-05-20T02:01:35;0.60;;;0.60;;
13693;SDS011;6919;52.344;14.518;2023-05-20T02:04:06;0.67;;;0.67;;
13693;SDS011;6919;52.344;14.518;2023-05-20T02:06:35;0.77;;;0.77;;
13693;SDS011;6919;52.344;14.518;2023-05-20T02:09:04;1.20;;;1.10;;
13693;SDS011;6919;52.344;14.518;2023-05-20T02:11:33;0.80;;;0.63;;
13693;SDS011;6919;52.344;14.518;2023-05-20T02:14:01;0.67;;;0.67;;
13693;SDS011;6919;52.344;14.518;2023-05-20T02:16:29;2.73;;;0.80;;
13693;SDS011;6919;52.344;14.518;2023-05-20T02:18:58;0.80;;;0.80;;
13693;SDS011;6919;52.344;14.518;2023-05-20T02:21:27;1.07;;;0.97;;
13693;SDS011;6919;52.344;14.518;2023-05-20T02:23:56;0.87;;;0.80;;
13693;SDS011;6919;52.344;14.518;2023-05-20T02:26:26;0.70;;;0.70;;
13693;SDS011;6919;52.344;14.518;2023-05-20T02:28:54;1.03;;;0.97;;
13693;SDS011;6919;52.344;14.518;2023-05-20T02:31:22;0.63;;;0.63;;
13693;SDS011;6919;52.344;14.518;2023-05-20T02:33:51;0.93;;;0.50;;
13693;SDS011;6919;52.344;14.518;2023-05-20T02:36:19;1.83;;;0.80;;
13693;SDS011;6919;52.344;14.518;2023-05-20T02:38:48;1.07;;;1.00;;
13693;SDS011;6919;52.344;14.518;2023-05-20T02:41:16;0.80;;;0.80;;
13693;SDS011;6919;52.344;14.518;2023-05-20T02:43:46;1.00;;;0.90;;
13693;SDS011;6919;52.344;14.518;2023-05-20T02:46:14;1.30;;;0.80;;
13693;SDS011;6919;52.344;14.518;2023-05-20T02:48:43;1.50;;;1.07;;
13693;SDS011;6919;52.344;14.518;2023-05-20T02:51:12;1.17;;;0.93;;
13693;SDS011;6919;52.344;14.518;2023-05-20T02:53:40;2.03;;;1.20;;
13693;SDS011;6919;52.344;14.518;2023-05-20T02:56:09;0.50;;;0.50;;
13693;SDS011;6919;52.344;14.518;2023-05-20T02:58:38;2.13;;;1.13;;
13693;SDS011;6919;52.344;14.518;2023-05-20T03:01:08;0.80;;;0.63;;
13693;SDS011;6919;52.344;14.518;2023-05-20T03:03:36;1.00;;;0.90;;
13693;SDS011;6919;52.344;14.518;2023-05-20T03:06:06;0.80;;;0.80;;
13693;SDS011;6919;52.344;14.518;2023-05-20T03:08:34;1.63;;;1.03;;
13693;SDS011;6919;52.344;14.518;2023-05-20T03:11:05;1.30;;;1.20;;
13693;SDS011;6919;52.344;14.518;2023-05-20T03:13:33;0.90;;;0.90;;
13693;SDS011;6919;52.344;14.518;2023-05-20T03:16:02;1.97;;;0.93;;
13693;SDS011;6919;52.344;14.518;2023-05-20T03:18:32;0.60;;;0.60;;
13693;SDS011;6919;52.344;14.518;2023-05-20T03:21:00;0.67;;;0.67;;
13693;SDS011;6919;52.344;14.518;2023-05-20T03:23:29;1.10;;;1.00;;
13693;SDS011;6919;52.344;14.518;2023-05-20T03:25:57;1.00;;;0.90;;
13693;SDS011;6919;52.344;14.518;2023-05-20T03:28:26;0.90;;;0.90;;
13693;SDS011;6919;52.344;14.518;2023-05-20T03:30:54;0.83;;;0.83;;
13693;SDS011;6919;52.344;14.518;2023-05-20T03:33:22;2.03;;;1.00;;
13693;SDS011;6919;52.344;14.518;2023-05-20T03:35:53;1.43;;;0.93;;
13693;SDS011;6919;52.344;14.518;2023-05-20T03:38:22;2.93;;;1.53;;
13693;SDS011;6919;52.344;14.518;2023-05-20T03:40:50;1.47;;;1.37;;
13693;SDS011;6919;52.344;14.518;2023-05-20T03:43:18;1.27;;;1.10;;
13693;SDS011;6919;52.344;14.518;2023-05-20T03:45:47;0.80;;;0.80;;
13693;SDS011;6919;52.344;14.518;2023-05-20T03:48:15;1.47;;;1.10;;
13693;SDS011;6919;52.344;14.518;2023-05-20T03:50:43;1.17;;;1.07;;
13693;SDS011;6919;52.344;14.518;2023-05-20T03:53:13;1.50;;;0.73;;
13693;SDS011;6919;52.344;14.518;2023-05-20T03:55:42;1.33;;;1.23;;
13693;SDS011;6919;52.344;14.518;2023-05-20T03:58:11;0.97;;;0.87;;
13693;SDS011;6919;52.344;14.518;2023-05-20T04:00:40;0.80;;;0.80;;
13693;SDS011;6919;52.344;14.518;2023-05-20T04:03:08;0.93;;;0.83;;
13693;SDS011;6919;52.344;14.518;2023-05-20T04:05:37;2.30;;;1.57;;
13693;SDS011;6919;52.344;14.518;2023-05-20T04:08:06;0.90;;;0.90;;
13693;SDS011;6919;52.344;14.518;2023-05-20T04:10:36;0.73;;;0.73;;
13693;SDS011;6919;52.344;14.518;2023-05-20T04:13:04;1.27;;;1.10;;
13693;SDS011;6919;52.344;14.518;2023-05-20T04:15:34;1.03;;;0.90;;
13693;SDS011;6919;52.344;14.518;2023-05-20T04:18:02;1.00;;;1.00;;
13693;SDS011;6919;52.344;14.518;2023-05-20T04:20:31;1.77;;;1.37;;
13693;SDS011;6919;52.344;14.518;2023-05-20T04:23:00;0.63;;;0.63;;
13693;SDS011;6919;52.344;14.518;2023-05-20T04:25:28;1.17;;;1.07;;
13693;SDS011;6919;52.344;14.518;2023-05-20T04:27:58;1.30;;;0.97;;
13693;SDS011;6919;52.344;14.518;2023-05-20T04:30:26;2.60;;;1.63;;
13693;SDS011;6919;52.344;14.518;2023-05-20T04:32:55;0.87;;;0.87;;
13693;SDS011;6919;52.344;14.518;2023-05-20T04:35:23;2.43;;;1.03;;
13693;SDS011;6919;52.344;14.518;2023-05-20T04:37:52;1.47;;;0.97;;
13693;SDS011;6919;52.344;14.518;2023-05-20T04:40:20;2.03;;;1.37;;
13693;SDS011;6919;52.344;14.518;2023-05-20T04:42:49;0.93;;;0.83;;
13693;SDS011;6919;52.344;14.518;2023-05-20T04:45:18;1.53;;;1.10;;
13693;SDS011;6919;52.344;14.518;2023-05-20T04:47:48;1.30;;;1.20;;
13693;SDS011;6919;52.344;14.518;2023-05-20T04:50:18;1.50;;;1.40;;
13693;SDS011;6919;52.344;14.518;2023-05-20T04:52:47;1.10;;;1.00;;
13693;SDS011;6919;52.344;14.518;2023-05-20T04:55:15;0.67;;;0.67;;
13693;SDS011;6919;52.344;14.518;2023-05-20T04:57:45;1.10;;;1.00;;
13693;SDS011;6919;52.344;14.518;2023-05-20T05:00:13;2.07;;;1.70;;
13693;SDS011;6919;52.344;14.518;2023-05-20T05:02:43;1.17;;;1.00;;
13693;SDS011;6919;52.344;14.518;2023-05-20T05:05:12;2.07;;;1.30;;
13693;SDS011;6919;52.344;14.518;2023-05-20T05:07:40;1.17;;;1.07;;
13693;SDS011;6919;52.344;14.518;2023-05-20T05:10:09;1.20;;;0.97;;
13693;SDS011;6919;52.344;14.518;2023-05-20T05:12:38;1.07;;;1.03;;
13693;SDS011;6919;52.344;14.518;2023-05-20T05:15:07;1.53;;;1.30;;
13693;SDS011;6919;52.344;14.518;2023-05-20T05:17:36;1.83;;;1.37;;
13693;SDS011;6919;52.344;14.518;2023-05-20T05:20:07;1.43;;;1.33;;
13693;SDS011;6919;52.344;14.518;2023-05-20T05:22:36;1.40;;;1.30;;
13693;SDS011;6919;52.344;14.518;2023-05-20T05:25:06;2.13;;;1.17;;
13693;SDS011;6919;52.344;14.518;2023-05-20T05:27:36;1.70;;;1.30;;
13693;SDS011;6919;52.344;14.518;2023-05-20T05:30:05;1.33;;;1.23;;
13693;SDS011;6919;52.344;14.518;2023-05-20T05:32:35;0.73;;;0.73;;
13693;SDS011;6919;52.344;14.518;2023-05-20T05:35:05;1.47;;;1.37;;
13693;SDS011;6919;52.344;14.518;2023-05-20T05:37:35;1.93;;;0.97;;
13693;SDS011;6919;52.344;14.518;2023-05-20T05:40:03;1.47;;;1.37;;
13693;SDS011;6919;52.344;14.518;2023-05-20T05:42:35;0.90;;;0.90;;
13693;SDS011;6919;52.344;14.518;2023-05-20T05:45:03;1.73;;;1.37;;
13693;SDS011;6919;52.344;14.518;2023-05-20T05:47:33;1.57;;;1.27;;
13693;SDS011;6919;52.344;14.518;2023-05-20T05:50:01;2.20;;;1.60;;
13693;SDS011;6919;52.344;14.518;2023-05-20T05:52:31;1.73;;;1.47;;
13693;SDS011;6919;52.344;14.518;2023-05-20T05:54:59;1.33;;;1.23;;
13693;SDS011;6919;52.344;14.518;2023-05-20T05:57:29;1.40;;;1.30;;
13693;SDS011;6919;52.344;14.518;2023-05-20T05:59:57;1.70;;;1.33;;
13693;SDS011;6919;52.344;14.518;2023-05-20T06:02:26;2.10;;;1.47;;
13693;SDS011;6919;52.344;14.518;2023-05-20T06:04:54;1.63;;;1.30;;
13693;SDS011;6919;52.344;14.518;2023-05-20T06:07:23;1.63;;;1.30;;
13693;SDS011;6919;52.344;14.518;2023-05-20T06:09:52;1.60;;;1.50;;
13693;SDS011;6919;52.344;14.518;2023-05-20T06:12:21;3.37;;;1.40;;
13693;SDS011;6919;52.344;14.518;2023-05-20T06:14:49;1.83;;;1.70;;
13693;SDS011;6919;52.344;14.518;2023-05-20T06:17:17;1.40;;;1.30;;
13693;SDS011;6919;52.344;14.518;2023-05-20T06:19:45;1.80;;;1.30;;
13693;SDS011;6919;52.344;14.518;2023-05-20T06:22:14;1.00;;;1.00;;
13693;SDS011;6919;52.344;14.518;2023-05-20T06:24:42;1.53;;;1.43;;
13693;SDS011;6919;52.344;14.518;2023-05-20T06:27:12;1.53;;;1.27;;
13693;SDS011;6919;52.344;14.518;2023-05-20T06:29:40;1.43;;;1.33;;
13693;SDS011;6919;52.344;14.518;2023-05-20T06:32:09;1.90;;;1.37;;
13693;SDS011;6919;52.344;14.518;2023-05-20T06:34:38;1.27;;;1.13;;
13693;SDS011;6919;52.344;14.518;2023-05-20T06:37:06;1.50;;;1.27;;
13693;SDS011;6919;52.344;14.518;2023-05-20T06:39:34;1.60;;;1.50;;
13693;SDS011;6919;52.344;14.518;2023-05-20T06:42:02;1.43;;;1.10;;
13693;SDS011;6919;52.344;14.518;2023-05-20T06:44:33;2.10;;;1.90;;
13693;SDS011;6919;52.344;14.518;2023-05-20T06:47:01;2.63;;;1.80;;
13693;SDS011;6919;52.344;14.518;2023-05-20T06:49:29;1.40;;;1.10;;
13693;SDS011;6919;52.344;14.518;2023-05-20T06:51:57;3.50;;;1.77;;
13693;SDS011;6919;52.344;14.518;2023-05-20T06:54:26;2.17;;;1.63;;
13693;SDS011;6919;52.344;14.518;2023-05-20T06:56:54;1.47;;;1.37;;
13693;SDS011;6919;52.344;14.518;2023-05-20T06:59:22;1.50;;;1.40;;
13693;SDS011;6919;52.344;14.518;2023-05-20T07:01:52;3.40;;;2.10;;
13693;SDS011;6919;52.344;14.518;2023-05-20T07:04:20;2.00;;;1.77;;
13693;SDS011;6919;52.344;14.518;2023-05-20T07:06:48;1.97;;;1.77;;
13693;SDS011;6919;52.344;14.518;2023-05-20T07:09:17;1.43;;;1.27;;
13693;SDS011;6919;52.344;14.518;2023-05-20T07:11:45;2.60;;;1.97;;
13693;SDS011;6919;52.344;14.518;2023-05-20T07:14:13;2.93;;;1.27;;
13693;SDS011;6919;52.344;14.518;2023-05-20T07:16:41;2.30;;;1.53;;
13693;SDS011;6919;52.344;14.518;2023-05-20T07:19:11;2.23;;;1.60;;
13693;SDS011;6919;52.344;14.518;2023-05-20T07:21:40;1.67;;;1.30;;
13693;SDS011;6919;52.344;14.518;2023-05-20T07:24:17;2.80;;;2.10;;
13693;SDS011;6919;52.344;14.518;2023-05-20T07:26:45;2.00;;;1.73;;
13693;SDS011;6919;52.344;14.518;2023-05-20T07:29:13;1.90;;;1.70;;
13693;SDS011;6919;52.344;14.518;2023-05-20T07:31:42;2.87;;;1.80;;
13693;SDS011;6919;52.344;14.518;2023-05-20T07:34:11;2.77;;;1.97;;
13693;SDS011;6919;52.344;14.518;2023-05-20T07:36:39;1.90;;;1.53;;
13693;SDS011;6919;52.344;14.518;2023-05-20T07:39:08;2.70;;;2.00;;
13693;SDS011;6919;52.344;14.518;2023-05-20T07:41:40;3.00;;;1.80;;
13693;SDS011;6919;52.344;14.518;2023-05-20T07:44:08;2.13;;;1.40;;
13693;SDS011;6919;52.344;14.518;2023-05-20T07:46:38;1.60;;;1.37;;
13693;SDS011;6919;52.344;14.518;2023-05-20T07:49:07;1.57;;;1.47;;
13693;SDS011;6919;52.344;14.518;2023-05-20T07:51:36;2.53;;;1.80;;
13693;SDS011;6919;52.344;14.518;2023-05-20T07:54:05;3.47;;;1.83;;
13693;SDS011;6919;52.344;14.518;2023-05-20T07:56:33;2.07;;;1.40;;
13693;SDS011;6919;52.344;14.518;2023-05-20T07:59:01;2.83;;;1.80;;
13693;SDS011;6919;52.344;14.518;2023-05-20T08:01:30;2.33;;;1.70;;
13693;SDS011;6919;52.344;14.518;2023-05-20T08:03:58;1.30;;;1.20;;
13693;SDS011;6919;52.344;14.518;2023-05-20T08:06:27;1.77;;;1.43;;
13693;SDS011;6919;52.344;14.518;2023-05-20T08:08:56;2.00;;;1.70;;
13693;SDS011;6919;52.344;14.518;2023-05-20T08:11:25;1.83;;;1.30;;
13693;SDS011;6919;52.344;14.518;2023-05-20T08:13:53;2.60;;;1.53;;
13693;SDS011;6919;52.344;14.518;2023-05-20T08:16:21;2.30;;;1.87;;
13693;SDS011;6919;52.344;14.518;2023-05-20T08:18:50;3.00;;;1.67;;
13693;SDS011;6919;52.344;14.518;2023-05-20T08:21:18;1.67;;;1.40;;
13693;SDS011;6919;52.344;14.518;2023-05-20T08:23:46;3.00;;;1.67;;
13693;SDS011;6919;52.344;14.518;2023-05-20T08:26:16;1.83;;;1.43;;
13693;SDS011;6919;52.344;14.518;2023-05-20T08:28:45;1.73;;;1.37;;
13693;SDS011;6919;52.344;14.518;2023-05-20T08:31:13;3.13;;;1.33;;
13693;SDS011;6919;52.344;14.518;2023-05-20T08:33:43;3.73;;;2.30;;
13693;SDS011;6919;52.344;14.518;2023-05-20T08:36:11;1.73;;;1.50;;
13693;SDS011;6919;52.344;14.518;2023-05-20T08:38:39;2.13;;;1.57;;
13693;SDS011;6919;52.344;14.518;2023-05-20T08:41:08;1.40;;;1.23;;
13693;SDS011;6919;52.344;14.518;2023-05-20T08:43:38;2.97;;;1.77;;
13693;SDS011;6919;52.344;14.518;2023-05-20T08:46:07;1.70;;;1.50;;
13693;SDS011;6919;52.344;14.518;2023-05-20T08:48:36;1.67;;;1.57;;
13693;SDS011;6919;52.344;14.518;2023-05-20T08:51:06;2.20;;;1.70;;
13693;SDS011;6919;52.344;14.518;2023-05-20T08:53:37;3.73;;;2.37;;
13693;SDS011;6919;52.344;14.518;2023-05-20T08:56:06;1.87;;;1.33;;
13693;SDS011;6919;52.344;14.518;2023-05-20T08:58:39;2.23;;;1.53;;
13693;SDS011;6919;52.344;14.518;2023-05-20T09:01:08;1.83;;;1.43;;
13693;SDS011;6919;52.344;14.518;2023-05-20T09:03:36;3.70;;;2.00;;
13693;SDS011;6919;52.344;14.518;2023-05-20T09:06:05;3.10;;;1.70;;
13693;SDS011;6919;52.344;14.518;2023-05-20T09:08:35;2.00;;;1.80;;
13693;SDS011;6919;52.344;14.518;2023-05-20T09:11:04;1.57;;;1.40;;
13693;SDS011;6919;52.344;14.518;2023-05-20T09:13:32;2.07;;;1.73;;
13693;SDS011;6919;52.344;14.518;2023-05-20T09:16:02;1.40;;;1.27;;
13693;SDS011;6919;52.344;14.518;2023-05-20T09:18:31;2.87;;;1.90;;
13693;SDS011;6919;52.344;14.518;2023-05-20T09:21:03;3.60;;;1.90;;
13693;SDS011;6919;52.344;14.518;2023-05-20T09:23:35;2.67;;;1.80;;
13693;SDS011;6919;52.344;14.518;2023-05-20T09:26:04;1.70;;;1.60;;
13693;SDS011;6919;52.344;14.518;2023-05-20T09:28:32;2.30;;;1.70;;
13693;SDS011;6919;52.344;14.518;2023-05-20T09:31:05;2.47;;;1.53;;
13693;SDS011;6919;52.344;14.518;2023-05-20T09:33:35;2.47;;;1.90;;
13693;SDS011;6919;52.344;14.518;2023-05-20T09:36:06;3.67;;;1.80;;
13693;SDS011;6919;52.344;14.518;2023-05-20T09:38:37;4.07;;;2.10;;
13693;SDS011;6919;52.344;14.518;2023-05-20T09:41:07;1.60;;;1.50;;
13693;SDS011;6919;52.344;14.518;2023-05-20T09:43:39;1.33;;;1.23;;
13693;SDS011;6919;52.344;14.518;2023-05-20T09:46:09;2.77;;;1.90;;
13693;SDS011;6919;52.344;14.518;2023-05-20T09:48:38;2.13;;;1.60;;
13693;SDS011;6919;52.344;14.518;2023-05-20T09:51:07;3.00;;;1.83;;
13693;SDS011;6919;52.344;14.518;2023-05-20T09:53:38;2.93;;;1.70;;
13693;SDS011;6919;52.344;14.518;2023-05-20T09:56:08;3.53;;;1.77;;
13693;SDS011;6919;52.344;14.518;2023-05-20T09:58:37;2.17;;;1.77;;
13693;SDS011;6919;52.344;14.518;2023-05-20T10:01:10;3.33;;;1.67;;
13693;SDS011;6919;52.344;14.518;2023-05-20T10:03:38;2.23;;;1.57;;
13693;SDS011;6919;52.344;14.518;2023-05-20T10:06:17;2.17;;;1.70;;
13693;SDS011;6919;52.344;14.518;2023-05-20T10:09:13;1.37;;;1.27;;
13693;SDS011;6919;52.344;14.518;2023-05-20T10:12:02;3.77;;;2.00;;
13693;SDS011;6919;52.344;14.518;2023-05-20T10:14:48;2.50;;;1.57;;
13693;SDS011;6919;52.344;14.518;2023-05-20T10:17:30;3.53;;;2.17;;
13693;SDS011;6919;52.344;14.518;2023-05-20T10:20:12;1.53;;;1.43;;
13693;SDS011;6919;52.344;14.518;2023-05-20T10:22:41;1.70;;;1.53;;
13693;SDS011;6919;52.344;14.518;2023-05-20T10:25:11;2.00;;;1.80;;
13693;SDS011;6919;52.344;14.518;2023-05-20T10:28:02;2.27;;;1.90;;
13693;SDS011;6919;52.344;14.518;2023-05-20T10:30:34;2.53;;;1.73;;
13693;SDS011;6919;52.344;14.518;2023-05-20T10:33:08;1.80;;;1.60;;
13693;SDS011;6919;52.344;14.518;2023-05-20T10:35:46;2.13;;;1.90;;
13693;SDS011;6919;52.344;14.518;2023-05-20T10:38:17;1.63;;;1.43;;
13693;SDS011;6919;52.344;14.518;2023-05-20T10:40:47;3.20;;;1.97;;
13693;SDS011;6919;52.344;14.518;2023-05-20T10:43:16;2.83;;;2.00;;
13693;SDS011;6919;52.344;14.518;2023-05-20T10:45:54;1.97;;;1.57;;
13693;SDS011;6919;52.344;14.518;2023-05-20T10:48:27;2.37;;;1.70;;
13693;SDS011;6919;52.344;14.518;2023-05-20T10:50:58;1.90;;;1.37;;
13693;SDS011;6919;52.344;14.518;2023-05-20T10:53:37;2.53;;;1.87;;
13693;SDS011;6919;52.344;14.518;2023-05-20T10:56:15;1.93;;;1.67;;
13693;SDS011;6919;52.344;14.518;2023-05-20T10:58:44;2.63;;;1.90;;
13693;SDS011;6919;52.344;14.518;2023-05-20T11:01:14;2.73;;;1.77;;
13693;SDS011;6919;52.344;14.518;2023-05-20T11:03:45;3.60;;;2.00;;
13693;SDS011;6919;52.344;14.518;2023-05-20T11:06:16;2.03;;;1.73;;
13693;SDS011;6919;52.344;14.518;2023-05-20T11:08:45;1.80;;;1.70;;
13693;SDS011;6919;52.344;14.518;2023-05-20T11:11:13;2.13;;;1.93;;
13693;SDS011;6919;52.344;14.518;2023-05-20T11:13:42;3.13;;;1.90;;
13693;SDS011;6919;52.344;14.518;2023-05-20T11:16:10;2.17;;;1.90;;
13693;SDS011;6919;52.344;14.518;2023-05-20T11:18:39;3.00;;;1.90;;
13693;SDS011;6919;52.344;14.518;2023-05-20T11:21:09;1.73;;;1.60;;
13693;SDS011;6919;52.344;14.518;2023-05-20T11:23:37;2.53;;;2.10;;
13693;SDS011;6919;52.344;14.518;2023-05-20T11:26:06;4.23;;;2.00;;
13693;SDS011;6919;52.344;14.518;2023-05-20T11:28:34;3.57;;;2.10;;
13693;SDS011;6919;52.344;14.518;2023-05-20T11:31:04;2.03;;;1.80;;
13693;SDS011;6919;52.344;14.518;2023-05-20T11:33:33;2.53;;;1.70;;
13693;SDS011;6919;52.344;14.518;2023-05-20T11:36:01;2.47;;;2.10;;
13693;SDS011;6919;52.344;14.518;2023-05-20T11:38:40;3.30;;;2.47;;
13693;SDS011;6919;52.344;14.518;2023-05-20T11:41:09;3.70;;;1.70;;
13693;SDS011;6919;52.344;14.518;2023-05-20T11:43:37;2.13;;;1.53;;
13693;SDS011;6919;52.344;14.518;2023-05-20T11:46:07;2.00;;;1.80;;
13693;SDS011;6919;52.344;14.518;2023-05-20T11:48:36;3.17;;;1.93;;
13693;SDS011;6919;52.344;14.518;2023-05-20T11:51:07;3.00;;;2.17;;
13693;SDS011;6919;52.344;14.518;2023-05-20T11:53:35;2.77;;;1.70;;
13693;SDS011;6919;52.344;14.518;2023-05-20T11:56:09;3.77;;;2.07;;
13693;SDS011;6919;52.344;14.518;2023-05-20T11:58:37;2.20;;;1.53;;
13693;SDS011;6919;52.344;14.518;2023-05-20T12:01:06;2.77;;;1.73;;
13693;SDS011;6919;52.344;14.518;2023-05-20T12:03:48;3.27;;;2.13;;
13693;SDS011;6919;52.344;14.518;2023-05-20T12:06:17;2.20;;;1.70;;
13693;SDS011;6919;52.344;14.518;2023-05-20T12:08:47;2.60;;;1.93;;
13693;SDS011;6919;52.344;14.518;2023-05-20T12:11:15;2.50;;;1.80;;
13693;SDS011;6919;52.344;14.518;2023-05-20T12:13:44;2.20;;;1.70;;
13693;SDS011;6919;52.344;14.518;2023-05-20T12:16:12;3.57;;;2.23;;
13693;SDS011;6919;52.344;14.518;2023-05-20T12:18:41;2.83;;;1.73;;
13693;SDS011;6919;52.344;14.518;2023-05-20T12:21:09;5.30;;;2.33;;
13693;SDS011;6919;52.344;14.518;2023-05-20T12:23:37;3.40;;;2.13;;
13693;SDS011;6919;52.344;14.518;2023-05-20T12:26:07;2.87;;;2.33;;
13693;SDS011;6919;52.344;14.518;2023-05-20T12:28:35;2.50;;;1.80;;
13693;SDS011;6919;52.344;14.518;2023-05-20T12:31:04;2.83;;;1.97;;
13693;SDS011;6919;52.344;14.518;2023-05-20T12:33:32;2.17;;;1.83;;
13693;SDS011;6919;52.344;14.518;2023-05-20T12:36:01;3.33;;;2.40;;
13693;SDS011;6919;52.344;14.518;2023-05-20T12:38:29;1.63;;;1.43;;
13693;SDS011;6919;52.344;14.518;2023-05-20T12:40:57;2.80;;;2.20;;
13693;SDS011;6919;52.344;14.518;2023-05-20T12:43:27;2.27;;;1.73;;
13693;SDS011;6919;52.344;14.518;2023-05-20T12:45:55;2.83;;;1.83;;
13693;SDS011;6919;52.344;14.518;2023-05-20T12:48:23;4.20;;;1.97;;
13693;SDS011;6919;52.344;14.518;2023-05-20T12:50:52;2.23;;;1.50;;
13693;SDS011;6919;52.344;14.518;2023-05-20T12:53:20;6.27;;;2.60;;
13693;SDS011;6919;52.344;14.518;2023-05-20T12:55:48;2.20;;;1.90;;
13693;SDS011;6919;52.344;14.518;2023-05-20T12:58:16;3.67;;;2.17;;
13693;SDS011;6919;52.344;14.518;2023-05-20T13:00:46;2.27;;;1.90;;
13693;SDS011;6919;52.344;14.518;2023-05-20T13:03:15;1.90;;;1.70;;
13693;SDS011;6919;52.344;14.518;2023-05-20T13:05:43;1.83;;;1.70;;
13693;SDS011;6919;52.344;14.518;2023-05-20T13:08:12;3.67;;;2.23;;
13693;SDS011;6919;52.344;14.518;2023-05-20T13:10:40;4.40;;;2.33;;
13693;SDS011;6919;52.344;14.518;2023-05-20T13:13:08;2.15;;;1.92;;
13693;SDS011;6919;52.344;14.518;2023-05-20T13:15:39;2.50;;;2.30;;
13693;SDS011;6919;52.344;14.518;2023-05-20T13:18:08;2.88;;;2.13;;
13693;SDS011;6919;52.344;14.518;2023-05-20T13:20:36;1.90;;;1.50;;
13693;SDS011;6919;52.344;14.518;2023-05-20T13:23:05;2.03;;;1.83;;
13693;SDS011;6919;52.344;14.518;2023-05-20T13:25:34;2.20;;;2.00;;
13693;SDS011;6919;52.344;14.518;2023-05-20T13:28:04;2.15;;;1.95;;
13693;SDS011;6919;52.344;14.518;2023-05-20T13:30:36;1.85;;;1.48;;
13693;SDS011;6919;52.344;14.518;2023-05-20T13:33:04;2.73;;;1.90;;
13693;SDS011;6919;52.344;14.518;2023-05-20T13:35:34;3.03;;;1.83;;
13693;SDS011;6919;52.344;14.518;2023-05-20T13:38:03;1.80;;;1.63;;
13693;SDS011;6919;52.344;14.518;2023-05-20T13:40:31;1.93;;;1.67;;
13693;SDS011;6919;52.344;14.518;2023-05-20T13:42:59;2.72;;;1.70;;
13693;SDS011;6919;52.344;14.518;2023-05-20T13:45:28;2.28;;;1.45;;
13693;SDS011;6919;52.344;14.518;2023-05-20T13:47:56;1.70;;;1.50;;
13693;SDS011;6919;52.344;14.518;2023-05-20T13:50:24;2.45;;;2.17;;
13693;SDS011;6919;52.344;14.518;2023-05-20T13:52:54;2.28;;;1.73;;
13693;SDS011;6919;52.344;14.518;2023-05-20T13:55:22;2.53;;;1.98;;
13693;SDS011;6919;52.344;14.518;2023-05-20T13:57:51;1.80;;;1.67;;
13693;SDS011;6919;52.344;14.518;2023-05-20T14:00:19;3.97;;;1.95;;
13693;SDS011;6919;52.344;14.518;2023-05-20T14:02:47;2.45;;;2.10;;
13693;SDS011;6919;52.344;14.518;2023-05-20T14:05:16;1.85;;;1.67;;
13693;SDS011;6919;52.344;14.518;2023-05-20T14:07:44;1.90;;;1.70;;
13693;SDS011;6919;52.344;14.518;2023-05-20T14:10:14;3.07;;;2.17;;
13693;SDS011;6919;52.344;14.518;2023-05-20T14:12:45;2.83;;;1.87;;
13693;SDS011;6919;52.344;14.518;2023-05-20T14:15:14;2.17;;;1.67;;
13693;SDS011;6919;52.344;14.518;2023-05-20T14:17:42;1.93;;;1.63;;
13693;SDS011;6919;52.344;14.518;2023-05-20T14:20:12;1.90;;;1.70;;
13693;SDS011;6919;52.344;14.518;2023-05-20T14:22:41;1.93;;;1.80;;
13693;SDS011;6919;52.344;14.518;2023-05-20T14:25:09;2.20;;;2.00;;
13693;SDS011;6919;52.344;14.518;2023-05-20T14:27:39;2.07;;;1.70;;
13693;SDS011;6919;52.344;14.518;2023-05-20T14:30:08;1.70;;;1.55;;
13693;SDS011;6919;52.344;14.518;2023-05-20T14:32:37;1.95;;;1.65;;
13693;SDS011;6919;52.344;14.518;2023-05-20T14:35:06;2.28;;;2.05;;
13693;SDS011;6919;52.344;14.518;2023-05-20T14:37:35;3.33;;;2.10;;
13693;SDS011;6919;52.344;14.518;2023-05-20T14:40:03;2.15;;;1.70;;
13693;SDS011;6919;52.344;14.518;2023-05-20T14:42:33;2.08;;;1.67;;
13693;SDS011;6919;52.344;14.518;2023-05-20T14:45:04;2.25;;;1.52;;
13693;SDS011;6919;52.344;14.518;2023-05-20T14:47:34;2.17;;;1.60;;
13693;SDS011;6919;52.344;14.518;2023-05-20T14:50:05;2.72;;;2.42;;
13693;SDS011;6919;52.344;14.518;2023-05-20T14:52:34;2.67;;;1.35;;
13693;SDS011;6919;52.344;14.518;2023-05-20T14:55:02;2.45;;;1.80;;
13693;SDS011;6919;52.344;14.518;2023-05-20T14:57:33;2.33;;;1.92;;
13693;SDS011;6919;52.344;14.518;2023-05-20T15:00:01;2.05;;;1.50;;
13693;SDS011;6919;52.344;14.518;2023-05-20T15:02:32;2.65;;;1.85;;